Home > Products > Valid Products > MTR

000
SAUS45 KTWC 121552
MTRSAD
METAR KSAD 121551Z AUTO 15003KT 10SM CLR 09/M06 A3030 RMK AO2 SLP246
T00891061





000
SAUS45 KTWC 121452
MTRSAD
METAR KSAD 121451Z AUTO 00000KT 10SM CLR 05/M07 A3028 RMK AO2 SLP242
T00501067 52012





000
SAUS45 KTWC 121352
MTRSAD
METAR KSAD 121351Z AUTO 09004KT 10SM CLR 01/M07 A3026 RMK AO2 SLP240
T00111067





000
SAUS45 KTWC 121252
MTRSAD
METAR KSAD 121251Z AUTO 16005KT 10SM CLR 03/M07 A3025 RMK AO2 SLP227
T00281067





000
SAUS45 KTWC 121152
MTRSAD
METAR KSAD 121151Z AUTO 11003KT 10SM CLR 03/M07 A3024 RMK AO2 SLP218
T00281067 10089 20022 53004





000
SAUS45 KTWC 121152
MTRSAD
METAR KSAD 121151Z AUTO 11003KT 10SM CLR 03/M07 A3024 RMK AO2 SLP218
T00281067 10089 20022 53004





000
SAUS45 KTWC 121052
MTRSAD
METAR KSAD 121051Z AUTO 12003KT 10SM CLR 03/M06 A3023 RMK AO2 SLP215
T00331061





000
SAUS45 KTWC 120952
MTRSAD
METAR KSAD 120951Z AUTO 15003KT 10SM CLR 04/M06 A3023 RMK AO2 SLP212
T00391056





000
SAUS45 KTWC 120852
MTRSAD
METAR KSAD 120851Z AUTO 08004KT 10SM CLR 04/M06 A3023 RMK AO2 SLP214
T00441061 53007 TSNO





000
SAUS45 KTWC 120852
MTRSAD
METAR KSAD 120851Z AUTO 08004KT 10SM CLR 04/M06 A3023 RMK AO2 SLP214
T00441061 53007 TSNO





000
SAUS45 KTWC 120752
MTRSAD
METAR KSAD 120751Z AUTO 00000KT 10SM CLR 06/M06 A3022 RMK AO2 SLP211
T00611056





000
SAUS45 KTWC 120652
MTRSAD
METAR KSAD 120651Z AUTO 00000KT 10SM CLR 08/M06 A3021 RMK AO2 SLP207
T00831056 402390011





000
SAUS45 KTWC 120652
MTRSAD
METAR KSAD 120651Z AUTO 00000KT 10SM CLR 08/M06 A3021 RMK AO2 SLP207
T00831056 402390011





000
SAUS45 KTWC 120552
MTRSAD
METAR KSAD 120551Z AUTO 08005KT 10SM CLR 09/M06 A3021 RMK AO2 SLP207
T00891056 10239 20083 52006





000
SAUS45 KTWC 120552
MTRSAD
METAR KSAD 120551Z AUTO 08005KT 10SM CLR 09/M06 A3021 RMK AO2 SLP207
T00891056 10239 20083 52006





000
SAUS45 KTWC 120453
MTRSAD
METAR KSAD 120451Z AUTO 06003KT 10SM CLR 09/M06 A3020 RMK AO2 SLP207
T00941056





000
SAUS45 KTWC 120352
MTRSAD
METAR KSAD 120351Z AUTO 10003KT 10SM CLR 11/M06 A3019 RMK AO2 SLP209
T01061056





000
SAUS45 KTWC 120352
MTRSAD
METAR KSAD 120351Z AUTO 10003KT 10SM CLR 11/M06 A3019 RMK AO2 SLP209
T01061056





000
SAUS45 KTWC 120252
MTRSAD
METAR KSAD 120251Z AUTO 00000KT 10SM CLR 12/M06 A3019 RMK AO2 SLP210
T01221056 53009





000
SAUS45 KTWC 120252
MTRSAD
METAR KSAD 120251Z AUTO 00000KT 10SM CLR 12/M06 A3019 RMK AO2 SLP210
T01221056 53009





000
SAUS45 KTWC 120152
MTRSAD
METAR KSAD 120151Z AUTO 36004KT 10SM CLR 14/M06 A3018 RMK AO2 SLP209
T01391061





000
SAUS45 KTWC 120152
MTRSAD
METAR KSAD 120151Z AUTO 36004KT 10SM CLR 14/M06 A3018 RMK AO2 SLP209
T01391061





000
SAUS45 KTWC 120052
MTRSAD
METAR KSAD 120051Z AUTO 25005KT 10SM CLR 21/M06 A3016 RMK AO2 SLP195
T02061061





000
SAUS45 KTWC 120052
MTRSAD
METAR KSAD 120051Z AUTO 25005KT 10SM CLR 21/M06 A3016 RMK AO2 SLP195
T02061061





000
SAUS45 KTWC 112352
MTRSAD
METAR KSAD 112351Z AUTO 29004KT 10SM CLR 24/M08 A3016 RMK AO2 SLP189
T02391083 10239 20161 55007





000
SAUS45 KTWC 112252
MTRSAD
METAR KSAD 112251Z AUTO 24006KT 10SM CLR 23/M07 A3015 RMK AO2 SLP188
T02331067





000
SAUS45 KTWC 112152
MTRSAD
METAR KSAD 112151Z AUTO VRB04KT 10SM CLR 23/M06 A3016 RMK AO2 SLP189
T02331061





000
SAUS45 KTWC 112052
MTRSAD
METAR KSAD 112051Z AUTO 33005KT 10SM CLR 22/M05 A3018 RMK AO2 SLP198
T02171050 58029





000
SAUS45 KTWC 111953
MTRSAD
METAR KSAD 111951Z AUTO 10SM CLR 20/M05 A3021 RMK AO2 SLP209
T02001050





000
SAUS45 KTWC 111853
MTRSAD
METAR KSAD 111851Z AUTO 00000KT 10SM CLR 19/M05 A3025 RMK AO2 SLP222
T01891050





000
SAUS45 KTWC 111752
MTRSAD
METAR KSAD 111751Z AUTO 00000KT 10SM CLR 16/M06 A3028 RMK AO2 SLP232
T01611056 10167 20011 50004





000
SAUS45 KTWC 111752
MTRSAD
METAR KSAD 111751Z AUTO 00000KT 10SM CLR 16/M06 A3028 RMK AO2 SLP232
T01611056 10167 20011 50004





000
SAUS45 KTWC 111652
MTRSAD
METAR KSAD 111651Z AUTO 00000KT 10SM CLR 14/M04 A3028 RMK AO2 SLP234
T01391044





000
SAUS45 KTWC 111552
MTRSAD
METAR KSAD 111551Z AUTO 09003KT 10SM CLR 09/M04 A3028 RMK AO2 SLP240
T00891044





000
SAUS45 KTWC 111452
MTRSAD
METAR KSAD 111451Z AUTO 12003KT 10SM CLR 04/M06 A3026 RMK AO2 SLP237
T00391056 53010





000
SAUS45 KTWC 111452
MTRSAD
METAR KSAD 111451Z AUTO 12003KT 10SM CLR 04/M06 A3026 RMK AO2 SLP237
T00391056 53010





000
SAUS45 KTWC 111353
MTRSAD
METAR KSAD 111351Z AUTO 13003KT 10SM CLR 01/M06 A3025 RMK AO2 SLP234
T00111061





000
SAUS45 KTWC 111253
MTRSAD
METAR KSAD 111251Z AUTO 12004KT 10SM CLR 03/M06 A3024 RMK AO2 SLP223
T00281056





000
SAUS45 KTWC 111253
MTRSAD
METAR KSAD 111251Z AUTO 12004KT 10SM CLR 03/M06 A3024 RMK AO2 SLP223
T00281056





000
SAUS45 KTWC 111153
MTRSAD
METAR KSAD 111151Z AUTO 00000KT 10SM CLR 02/M06 A3023 RMK AO2 SLP216
T00221056 10089 20022 53005





000
SAUS45 KTWC 111153
MTRSAD
METAR KSAD 111151Z AUTO 00000KT 10SM CLR 02/M06 A3023 RMK AO2 SLP216
T00221056 10089 20022 53005





000
SAUS45 KTWC 111052
MTRSAD
METAR KSAD 111051Z AUTO 15003KT 10SM CLR 03/M05 A3022 RMK AO2 SLP210
T00331050





000
SAUS45 KTWC 110952
MTRSAD
METAR KSAD 110951Z AUTO 06004KT 10SM CLR 04/M06 A3021 RMK AO2 SLP209
T00391056





000
SAUS45 KTWC 110852
MTRSAD
METAR KSAD 110851Z AUTO 11004KT 10SM CLR 05/M06 A3021 RMK AO2 SLP210
T00501056 50001





000
SAUS45 KTWC 110852
MTRSAD
METAR KSAD 110851Z AUTO 11004KT 10SM CLR 05/M06 A3021 RMK AO2 SLP210
T00501056 50001





000
SAUS45 KTWC 110752
MTRSAD
METAR KSAD 110751Z AUTO 16003KT 10SM CLR 06/M06 A3022 RMK AO2 SLP211
T00611056





000
SAUS45 KTWC 110652
MTRSAD
METAR KSAD 110651Z AUTO 13003KT 10SM CLR 07/M05 A3021 RMK AO2 SLP210
T00721050 402330028





000
SAUS45 KTWC 110652
MTRSAD
METAR KSAD 110651Z AUTO 13003KT 10SM CLR 07/M05 A3021 RMK AO2 SLP210
T00721050 402330028





000
SAUS45 KTWC 110552
MTRSAD
METAR KSAD 110551Z AUTO 20003KT 10SM CLR 09/M05 A3021 RMK AO2 SLP208
T00891050 10228 20078 51006





000
SAUS45 KTWC 110552
MTRSAD
METAR KSAD 110551Z AUTO 20003KT 10SM CLR 09/M05 A3021 RMK AO2 SLP208
T00891050 10228 20078 51006





000
SAUS45 KTWC 110452
MTRSAD
METAR KSAD 110451Z AUTO 00000KT 10SM CLR 10/M06 A3021 RMK AO2 SLP209
T01001056





000
SAUS45 KTWC 110452
MTRSAD
METAR KSAD 110451Z AUTO 00000KT 10SM CLR 10/M06 A3021 RMK AO2 SLP209
T01001056





000
SAUS45 KTWC 110353
MTRSAD
METAR KSAD 110351Z AUTO 12004KT 10SM CLR 11/M06 A3020 RMK AO2 SLP210
T01061056





000
SAUS45 KTWC 110253
MTRSAD
METAR KSAD 110251Z AUTO 06004KT 10SM CLR 13/M06 A3019 RMK AO2 SLP210
T01331061 58002





000
SAUS45 KTWC 110253
MTRSAD
METAR KSAD 110251Z AUTO 06004KT 10SM CLR 13/M06 A3019 RMK AO2 SLP210
T01331061 58002





000
SAUS45 KTWC 110152
MTRSAD
METAR KSAD 110151Z AUTO 00000KT 10SM CLR 14/M06 A3020 RMK AO2 SLP213
T01391061





000
SAUS45 KTWC 110052
MTRSAD
METAR KSAD 110051Z AUTO 26003KT 10SM CLR 21/M07 A3020 RMK AO2 SLP202
T02061072





000
SAUS45 KTWC 110052
MTRSAD
METAR KSAD 110051Z AUTO 26003KT 10SM CLR 21/M07 A3020 RMK AO2 SLP202
T02061072





000
SAUS45 KTWC 102353
MTRSAD
METAR KSAD 102351Z AUTO 19004KT 10SM CLR 23/M08 A3020 RMK AO2 SLP198
T02281078 10233 20178 56016





000
SAUS45 KTWC 102353
MTRSAD
METAR KSAD 102351Z AUTO 19004KT 10SM CLR 23/M08 A3020 RMK AO2 SLP198
T02281078 10233 20178 56016





000
SAUS45 KTWC 102253
MTRSAD
METAR KSAD 102251Z AUTO 19003KT 10SM CLR 23/M08 A3021 RMK AO2 SLP201
T02281083





000
SAUS45 KTWC 102253
MTRSAD
METAR KSAD 102251Z AUTO 19003KT 10SM CLR 23/M08 A3021 RMK AO2 SLP201
T02281083





000
SAUS45 KTWC 102152
MTRSAD
METAR KSAD 102151Z AUTO 00000KT 10SM CLR 23/M07 A3022 RMK AO2 SLP210
T02281072





000
SAUS45 KTWC 102052
MTRSAD
METAR KSAD 102051Z AUTO 17005KT 10SM CLR 22/M06 A3025 RMK AO2 SLP218
T02171056 58033





000
SAUS45 KTWC 101952
MTRSAD
METAR KSAD 101951Z AUTO 16007KT 10SM CLR 21/M06 A3029 RMK AO2 SLP230
T02061056





000
SAUS45 KTWC 101952
MTRSAD
METAR KSAD 101951Z AUTO 16007KT 10SM CLR 21/M06 A3029 RMK AO2 SLP230
T02061056





000
SAUS45 KTWC 101852
MTRSAD
METAR KSAD 101851Z AUTO 17006KT 10SM CLR 19/M05 A3033 RMK AO2 SLP248
T01891050





000
SAUS45 KTWC 101852
MTRSAD
METAR KSAD 101851Z AUTO 17006KT 10SM CLR 19/M05 A3033 RMK AO2 SLP248
T01891050





000
SAUS45 KTWC 101752
MTRSAD
METAR KSAD 101751Z AUTO 13010KT 10SM CLR 18/M06 A3036 RMK AO2 SLP257
T01781056 10178 20028 58001





000
SAUS45 KTWC 101752
MTRSAD
METAR KSAD 101751Z AUTO 13010KT 10SM CLR 18/M06 A3036 RMK AO2 SLP257
T01781056 10178 20028 58001





000
SAUS45 KTWC 101652
MTRSAD
METAR KSAD 101651Z AUTO 13010KT 10SM CLR 14/M05 A3037 RMK AO2 SLP265
T01441050





000
SAUS45 KTWC 101552
MTRSAD
METAR KSAD 101551Z AUTO 13008KT 10SM CLR 10/M04 A3036 RMK AO2 SLP266
T01001039





000
SAUS45 KTWC 101552
MTRSAD
METAR KSAD 101551Z AUTO 13008KT 10SM CLR 10/M04 A3036 RMK AO2 SLP266
T01001039





000
SAUS45 KTWC 101453
MTRSAD
METAR KSAD 101451Z AUTO 00000KT 10SM CLR 05/M04 A3036 RMK AO2 SLP270
T00501044 53019





000
SAUS45 KTWC 101352
MTRSAD
METAR KSAD 101351Z AUTO 28006KT 10SM CLR 03/M04 A3033 RMK AO2 SLP261
T00331044





000
SAUS45 KTWC 101252
MTRSAD
METAR KSAD 101251Z AUTO 10007KT 10SM CLR 07/M04 A3031 RMK AO2 SLP244
T00671044





000
SAUS45 KTWC 101153
MTRSAD
METAR KSAD 101151Z AUTO 13007KT 10SM CLR 08/M04 A3030 RMK AO2 SLP233
T00831044 10117 20044 53005





000
SAUS45 KTWC 101153
MTRSAD
METAR KSAD 101151Z AUTO 13007KT 10SM CLR 08/M04 A3030 RMK AO2 SLP233
T00831044 10117 20044 53005





000
SAUS45 KTWC 101053
MTRSAD
METAR KSAD 101051Z AUTO 12006KT 10SM CLR 09/M04 A3029 RMK AO2 SLP229
T00891039





000
SAUS45 KTWC 101053
MTRSAD
METAR KSAD 101051Z AUTO 12006KT 10SM CLR 09/M04 A3029 RMK AO2 SLP229
T00891039





000
SAUS45 KTWC 100952
MTRSAD
METAR KSAD 100951Z AUTO 00000KT 10SM CLR 04/M05 A3029 RMK AO2 SLP236
T00441050





000
SAUS45 KTWC 100952
MTRSAD
METAR KSAD 100951Z AUTO 00000KT 10SM CLR 04/M05 A3029 RMK AO2 SLP236
T00441050





000
SAUS45 KTWC 100852
MTRSAD
METAR KSAD 100851Z AUTO 10006KT 10SM CLR 08/M04 A3028 RMK AO2 SLP230
T00781044 53006





000
SAUS45 KTWC 100752
MTRSAD
METAR KSAD 100751Z AUTO 10008KT 10SM CLR 09/M04 A3027 RMK AO2 SLP226
T00891044





000
SAUS45 KTWC 100652
MTRSAD
METAR KSAD 100651Z AUTO 09007KT 10SM CLR 08/M04 A3027 RMK AO2 SLP228
T00831044 402220061





000
SAUS45 KTWC 100652
MTRSAD
METAR KSAD 100651Z AUTO 09007KT 10SM CLR 08/M04 A3027 RMK AO2 SLP228
T00831044 402220061





000
SAUS45 KTWC 100552
MTRSAD
METAR KSAD 100551Z AUTO 13008KT 10SM CLR 10/M05 A3026 RMK AO2 SLP226
T01001050 10222 20072 53013





000
SAUS45 KTWC 100552
MTRSAD
METAR KSAD 100551Z AUTO 13008KT 10SM CLR 10/M05 A3026 RMK AO2 SLP226
T01001050 10222 20072 53013





000
SAUS45 KTWC 100452
MTRSAD
METAR KSAD 100451Z AUTO 11004KT 10SM CLR 09/M05 A3025 RMK AO2 SLP224
T00941050





000
SAUS45 KTWC 100452
MTRSAD
METAR KSAD 100451Z AUTO 11004KT 10SM CLR 09/M05 A3025 RMK AO2 SLP224
T00941050





000
SAUS45 KTWC 100353
MTRSAD
METAR KSAD 100351Z AUTO 10003KT 10SM CLR 11/M05 A3023 RMK AO2 SLP220
T01061050





000
SAUS45 KTWC 100253
MTRSAD
METAR KSAD 100251Z AUTO 00000KT 10SM CLR 11/M06 A3022 RMK AO2 SLP220
T01111056 53007





000
SAUS45 KTWC 100253
MTRSAD
METAR KSAD 100251Z AUTO 00000KT 10SM CLR 11/M06 A3022 RMK AO2 SLP220
T01111056 53007





000
SAUS45 KTWC 100152
MTRSAD
METAR KSAD 100151Z AUTO 00000KT 10SM CLR 13/M05 A3021 RMK AO2 SLP216
T01281050





000
SAUS45 KTWC 100152
MTRSAD
METAR KSAD 100151Z AUTO 00000KT 10SM CLR 13/M05 A3021 RMK AO2 SLP216
T01281050





000
SAUS45 KTWC 100052
MTRSAD
METAR KSAD 100051Z AUTO 21004KT 10SM CLR 19/M07 A3020 RMK AO2 SLP203
T01941067





000
SAUS45 KTWC 100052
MTRSAD
METAR KSAD 100051Z AUTO 21004KT 10SM CLR 19/M07 A3020 RMK AO2 SLP203
T01941067





000
SAUS45 KTWC 092353
MTRSAD
METAR KSAD 092351Z AUTO 16003KT 10SM CLR 22/M07 A3020 RMK AO2 SLP201
T02221067 10222 20167 56013





000
SAUS45 KTWC 092353
MTRSAD
METAR KSAD 092351Z AUTO 16003KT 10SM CLR 22/M07 A3020 RMK AO2 SLP201
T02221067 10222 20167 56013





000
SAUS45 KTWC 092252
MTRSAD
METAR KSAD 092251Z AUTO 18007KT 10SM CLR 22/M07 A3020 RMK AO2 SLP200
T02221067





000
SAUS45 KTWC 092152
MTRSAD
METAR KSAD 092151Z AUTO 15008KT 10SM CLR 22/M06 A3021 RMK AO2 SLP206
T02171061





000
SAUS45 KTWC 092152
MTRSAD
METAR KSAD 092151Z AUTO 15008KT 10SM CLR 22/M06 A3021 RMK AO2 SLP206
T02171061





000
SAUS45 KTWC 092052
MTRSAD
METAR KSAD 092051Z AUTO 20007KT 10SM CLR 21/M06 A3024 RMK AO2 SLP215
T02061061 58034





000
SAUS45 KTWC 092052
MTRSAD
METAR KSAD 092051Z AUTO 20007KT 10SM CLR 21/M06 A3024 RMK AO2 SLP215
T02061061 58034





000
SAUS45 KTWC 091952
MTRSAD
METAR KSAD 091951Z AUTO 17008KT 10SM CLR 19/M06 A3028 RMK AO2 SLP228
T01941056





000
SAUS45 KTWC 091853
MTRSAD
METAR KSAD 091851Z AUTO 17006KT 10SM CLR 18/M06 A3033 RMK AO2 SLP248
T01781061





000
SAUS45 KTWC 091853
MTRSAD
METAR KSAD 091851Z AUTO 17006KT 10SM CLR 18/M06 A3033 RMK AO2 SLP248
T01781061





000
SAUS45 KTWC 091752
MTRSAD
METAR KSAD 091751Z AUTO 13008KT 10SM CLR 17/M05 A3035 RMK AO2 SLP255
T01671050 10172 20072 50006





000
SAUS45 KTWC 091652
MTRSAD
METAR KSAD 091651Z AUTO 11010KT 10SM CLR 15/M04 A3036 RMK AO2 SLP261
T01501044





    US Dept of Commerce
    National Oceanic and Atmospheric Administration
    National Weather Service
    1325 East West Highway
    Silver Spring, MD 20910
    Page Author: NWS Internet Services Team
Disclaimer
Information Quality
Credits
Glossary
Privacy Policy
Freedom of Information Act (FOIA)
About Us
Career Opportunities